createdAt,value
2022-10-26T00:01:49.039Z,12.91
2022-10-26T00:04:17.666Z,12.93
2022-10-26T00:06:46.043Z,12.97
2022-10-26T00:09:14.409Z,12.97
2022-10-26T00:11:42.754Z,12.94
2022-10-26T00:14:11.088Z,12.91
2022-10-26T00:16:39.525Z,12.93
2022-10-26T00:19:07.938Z,12.93
2022-10-26T00:21:36.544Z,12.90
2022-10-26T00:24:05.602Z,12.84
2022-10-26T00:26:34.140Z,12.80
2022-10-26T00:29:02.951Z,12.79
2022-10-26T00:31:31.595Z,12.77
2022-10-26T00:34:00.182Z,12.76
2022-10-26T00:36:28.961Z,12.76
2022-10-26T00:38:58.074Z,12.74
2022-10-26T00:41:29.517Z,12.73
2022-10-26T00:43:58.877Z,12.71
2022-10-26T00:46:30.200Z,12.68
2022-10-26T00:49:03.616Z,12.63
2022-10-26T00:51:36.589Z,12.63
2022-10-26T00:54:11.885Z,12.57
2022-10-26T00:56:41.620Z,12.55
2022-10-26T00:59:13.308Z,12.59
2022-10-26T01:01:45.216Z,12.59
2022-10-26T01:04:14.605Z,12.61
2022-10-26T01:06:44.774Z,12.61
2022-10-26T01:09:13.795Z,12.63
2022-10-26T01:11:42.136Z,12.66
2022-10-26T01:14:13.363Z,12.70
2022-10-26T01:20:08.087Z,12.69
2022-10-26T01:22:42.009Z,12.63
2022-10-26T01:25:25.525Z,12.62
2022-10-26T01:27:54.198Z,12.61
2022-10-26T01:30:31.077Z,12.58
2022-10-26T01:33:22.977Z,12.54
2022-10-26T01:36:01.741Z,12.50
2022-10-26T01:38:38.502Z,12.43
2022-10-26T01:41:11.906Z,12.36
2022-10-26T01:43:43.457Z,12.32
2022-10-26T01:46:12.922Z,12.29
2022-10-26T01:48:43.897Z,12.28
2022-10-26T01:51:13.949Z,12.27
2022-10-26T01:53:47.015Z,12.25
2022-10-26T01:56:20.991Z,12.25
2022-10-26T01:59:27.056Z,12.24
2022-10-26T02:02:26.295Z,12.15
2022-10-26T02:05:16.018Z,12.09
2022-10-26T02:07:55.370Z,12.06
2022-10-26T02:10:34.590Z,12.07
2022-10-26T02:13:10.365Z,12.10
2022-10-26T02:15:47.922Z,12.12
2022-10-26T02:18:24.509Z,12.09
2022-10-26T02:20:59.846Z,12.03
2022-10-26T02:23:31.743Z,11.98
2022-10-26T02:26:03.216Z,11.98
2022-10-26T02:28:36.510Z,12.02
2022-10-26T02:31:09.093Z,12.04
2022-10-26T02:33:41.238Z,12.12
2022-10-26T02:36:12.277Z,12.17
2022-10-26T02:38:45.267Z,12.15
2022-10-26T02:41:15.557Z,12.14
2022-10-26T02:43:51.000Z,12.11
2022-10-26T02:46:23.010Z,12.10
2022-10-26T02:48:51.443Z,12.09
2022-10-26T02:51:26.784Z,12.11
2022-10-26T02:54:01.405Z,12.11
2022-10-26T02:56:35.696Z,12.07
2022-10-26T02:59:07.768Z,12.08
2022-10-26T03:01:37.057Z,12.11
2022-10-26T03:04:06.117Z,12.11
2022-10-26T03:06:34.603Z,12.09
2022-10-26T03:09:03.249Z,12.03
2022-10-26T03:11:31.759Z,12.04
2022-10-26T03:14:00.317Z,12.09
2022-10-26T03:16:28.803Z,12.12
2022-10-26T03:18:57.342Z,12.19
2022-10-26T03:21:28.129Z,12.19
2022-10-26T03:23:56.674Z,12.20
2022-10-26T03:26:25.226Z,12.08
2022-10-26T03:28:53.580Z,12.05
2022-10-26T03:31:24.766Z,12.13
2022-10-26T03:33:53.498Z,12.21
2022-10-26T03:36:21.916Z,12.20
2022-10-26T03:38:50.339Z,12.16
2022-10-26T03:41:18.635Z,12.15
2022-10-26T03:43:47.821Z,12.16
2022-10-26T03:46:16.201Z,12.13
2022-10-26T03:48:46.471Z,12.13
2022-10-26T03:51:14.831Z,12.11
2022-10-26T03:53:43.181Z,12.10
2022-10-26T03:56:11.641Z,12.11
2022-10-26T03:58:40.151Z,12.19
2022-10-26T04:01:08.833Z,12.19
2022-10-26T04:03:37.315Z,12.21
2022-10-26T04:06:06.642Z,12.22
2022-10-26T04:08:35.395Z,12.26
2022-10-26T04:11:04.848Z,12.31
2022-10-26T04:13:33.989Z,12.37
2022-10-26T04:16:02.415Z,12.24
2022-10-26T04:18:30.730Z,12.12
2022-10-26T04:21:02.136Z,12.10
2022-10-26T04:23:30.986Z,12.06
2022-10-26T04:25:59.303Z,12.06
2022-10-26T04:28:27.712Z,12.08
2022-10-26T04:30:56.108Z,12.06
2022-10-26T04:33:24.543Z,12.09
2022-10-26T04:35:52.953Z,12.10
2022-10-26T04:38:21.252Z,12.07
2022-10-26T04:40:52.373Z,12.06
2022-10-26T04:43:20.814Z,12.06
2022-10-26T04:45:49.290Z,11.99
2022-10-26T04:48:17.868Z,12.01
2022-10-26T04:50:46.964Z,11.99
2022-10-26T04:53:15.330Z,11.97
2022-10-26T04:55:43.672Z,11.95
2022-10-26T04:58:12.370Z,12.00
2022-10-26T05:00:40.755Z,12.00
2022-10-26T05:03:09.994Z,12.04
2022-10-26T05:05:38.378Z,12.06
2022-10-26T05:08:07.077Z,12.07
2022-10-26T05:10:35.634Z,12.15
2022-10-26T05:13:04.103Z,12.19
2022-10-26T05:15:32.579Z,12.18
2022-10-26T05:18:02.797Z,12.18
2022-10-26T05:20:37.174Z,12.19
2022-10-26T05:23:07.369Z,12.22
2022-10-26T05:25:36.970Z,12.26
2022-10-26T05:28:08.915Z,12.28
2022-10-26T05:30:37.238Z,12.28
2022-10-26T05:33:06.977Z,12.30
2022-10-26T05:35:35.970Z,12.35
2022-10-26T05:38:08.664Z,12.39
2022-10-26T05:40:37.264Z,12.41
2022-10-26T05:43:23.863Z,12.35
2022-10-26T05:45:54.116Z,12.28
2022-10-26T05:48:22.831Z,12.32
2022-10-26T05:50:51.463Z,12.37
2022-10-26T05:53:19.930Z,12.41
2022-10-26T05:55:49.352Z,12.47
2022-10-26T05:58:18.836Z,12.48
2022-10-26T06:01:07.222Z,12.47
2022-10-26T06:03:52.157Z,12.38
2022-10-26T06:06:22.583Z,12.39
2022-10-26T06:08:52.051Z,12.41
2022-10-26T06:11:21.541Z,12.37
2022-10-26T06:13:54.055Z,12.37
2022-10-26T06:16:33.706Z,12.35
2022-10-26T06:19:14.585Z,12.34
2022-10-26T06:21:56.571Z,12.32
2022-10-26T06:24:36.022Z,12.34
2022-10-26T06:27:19.439Z,12.38
2022-10-26T06:29:57.160Z,12.40
2022-10-26T06:32:25.832Z,12.40
2022-10-26T06:35:07.229Z,12.40
2022-10-26T06:37:37.194Z,12.26
2022-10-26T06:40:08.515Z,12.21
2022-10-26T06:42:37.904Z,12.25
2022-10-26T06:45:12.332Z,12.35
2022-10-26T06:47:52.114Z,12.41
2022-10-26T06:50:35.956Z,12.41
2022-10-26T06:53:14.377Z,12.39
2022-10-26T06:55:46.334Z,12.43
2022-10-26T06:58:17.729Z,12.47
2022-10-26T07:00:48.272Z,12.47
2022-10-26T07:03:16.834Z,12.43
2022-10-26T07:05:45.830Z,12.47
2022-10-26T07:08:14.260Z,12.52
2022-10-26T07:10:43.048Z,12.51
2022-10-26T07:13:11.709Z,12.50
2022-10-26T07:15:42.281Z,12.52
2022-10-26T07:18:10.722Z,12.57
2022-10-26T07:20:41.530Z,12.59
2022-10-26T07:23:10.819Z,12.62
2022-10-26T07:25:39.885Z,12.66
2022-10-26T07:28:10.378Z,12.58
2022-10-26T07:30:40.938Z,12.58
2022-10-26T07:33:11.098Z,12.63
2022-10-26T07:35:39.947Z,12.65
2022-10-26T07:38:08.736Z,12.61
2022-10-26T07:40:37.810Z,12.57
2022-10-26T07:43:06.414Z,12.63
2022-10-26T07:45:36.198Z,12.60
2022-10-26T07:48:05.061Z,12.56
2022-10-26T07:50:33.510Z,12.59
2022-10-26T07:53:01.925Z,12.65
2022-10-26T07:55:30.250Z,12.72
2022-10-26T07:57:58.811Z,12.78
2022-10-26T08:00:28.138Z,12.75
2022-10-26T08:02:56.681Z,12.69
2022-10-26T08:05:26.758Z,12.70
2022-10-26T08:07:55.321Z,12.72
2022-10-26T08:10:23.826Z,12.73
2022-10-26T08:12:53.874Z,12.72
2022-10-26T08:15:22.641Z,12.81
2022-10-26T08:17:51.574Z,12.74
2022-10-26T08:20:20.817Z,12.71
2022-10-26T08:22:49.491Z,12.75
2022-10-26T08:25:21.256Z,12.79
2022-10-26T08:27:50.105Z,12.77
2022-10-26T08:30:18.801Z,12.74
2022-10-26T08:32:48.156Z,12.72
2022-10-26T08:35:17.377Z,12.78
2022-10-26T08:37:45.721Z,12.80
2022-10-26T08:40:16.740Z,12.91
2022-10-26T08:42:50.231Z,12.97
2022-10-26T08:45:31.715Z,13.05
2022-10-26T08:48:05.741Z,13.08
2022-10-26T08:50:40.658Z,13.07
2022-10-26T08:53:19.978Z,13.05
2022-10-26T08:55:52.648Z,13.10
2022-10-26T08:58:27.183Z,13.17
2022-10-26T09:00:55.678Z,13.16
2022-10-26T09:03:25.270Z,13.17
2022-10-26T09:06:08.760Z,13.22
2022-10-26T09:08:48.273Z,13.27
2022-10-26T09:11:27.873Z,13.29
2022-10-26T09:14:10.833Z,13.34
2022-10-26T09:16:50.914Z,13.39
2022-10-26T09:19:46.972Z,13.44
2022-10-26T09:22:21.885Z,13.40
2022-10-26T09:24:54.680Z,13.40
2022-10-26T09:27:27.100Z,13.44
2022-10-26T09:29:56.566Z,13.52
2022-10-26T09:32:30.541Z,13.54
2022-10-26T09:35:02.661Z,13.63
2022-10-26T09:37:37.672Z,13.71
2022-10-26T09:40:13.101Z,13.74
2022-10-26T09:42:46.736Z,13.74
2022-10-26T09:45:20.361Z,13.81
2022-10-26T09:47:52.429Z,13.87
2022-10-26T09:50:27.054Z,13.81
2022-10-26T09:52:55.433Z,13.82
2022-10-26T09:55:23.808Z,13.86
2022-10-26T09:57:55.465Z,13.83
2022-10-26T10:00:25.773Z,13.77
2022-10-26T10:02:55.491Z,13.79
2022-10-26T10:08:21.889Z,13.85
2022-10-26T10:10:59.974Z,13.84
2022-10-26T10:13:31.215Z,13.90
2022-10-26T10:16:11.888Z,13.91
2022-10-26T10:18:41.949Z,13.94
2022-10-26T10:21:11.494Z,13.94
2022-10-26T10:23:51.388Z,13.96
2022-10-26T10:26:20.505Z,14.01
2022-10-26T10:28:58.118Z,14.01
2022-10-26T10:31:31.181Z,13.94
2022-10-26T10:34:00.239Z,13.93
2022-10-26T10:36:29.937Z,13.95
2022-10-26T10:38:59.442Z,14.04
2022-10-26T10:41:30.963Z,14.10
2022-10-26T10:44:08.297Z,14.13
2022-10-26T10:46:37.535Z,14.17
2022-10-26T10:49:18.408Z,14.17
2022-10-26T10:51:48.066Z,14.22
2022-10-26T10:54:25.364Z,14.26
2022-10-26T10:56:57.670Z,14.28
2022-10-26T10:59:44.686Z,14.24
2022-10-26T11:02:42.859Z,14.19
2022-10-26T11:05:26.240Z,14.15
2022-10-26T11:08:06.739Z,14.19
2022-10-26T11:10:40.568Z,14.22
2022-10-26T11:13:18.024Z,14.25
2022-10-26T11:15:50.391Z,14.26
2022-10-26T11:18:27.142Z,14.33
2022-10-26T11:21:01.486Z,14.37
2022-10-26T11:23:37.747Z,14.36
2022-10-26T11:26:12.425Z,14.40
2022-10-26T11:28:49.329Z,14.47
2022-10-26T11:31:23.125Z,14.45
2022-10-26T11:34:07.935Z,14.46
2022-10-26T11:36:39.293Z,14.50
2022-10-26T11:39:16.240Z,14.49
2022-10-26T11:41:50.887Z,14.52
2022-10-26T11:44:28.145Z,14.57
2022-10-26T11:47:00.942Z,14.56
2022-10-26T11:49:36.131Z,14.63
2022-10-26T11:52:14.047Z,14.68
2022-10-26T11:54:48.233Z,14.71
2022-10-26T11:57:17.484Z,14.70
2022-10-26T11:59:50.289Z,14.57
2022-10-26T12:02:21.514Z,14.54
2022-10-26T12:04:56.192Z,14.54
2022-10-26T12:07:29.687Z,14.61
2022-10-26T12:09:59.001Z,14.65
2022-10-26T12:12:37.463Z,14.68
2022-10-26T12:15:30.909Z,14.55
2022-10-26T12:18:26.799Z,14.51
2022-10-26T12:21:04.907Z,14.50
2022-10-26T12:23:40.841Z,14.53
2022-10-26T12:26:52.691Z,14.58
2022-10-26T12:29:44.365Z,14.61
2022-10-26T12:32:51.342Z,14.75
2022-10-26T12:35:38.539Z,14.74
2022-10-26T12:38:42.655Z,14.70
2022-10-26T12:41:21.919Z,14.67
2022-10-26T12:43:54.618Z,14.69
2022-10-26T12:46:40.825Z,14.73
2022-10-26T12:49:57.972Z,14.71
2022-10-26T12:52:33.842Z,14.69
2022-10-26T12:55:28.441Z,14.78
2022-10-26T12:58:10.338Z,14.85
2022-10-26T13:00:46.817Z,14.89
2022-10-26T13:03:29.924Z,14.84
2022-10-26T13:06:20.132Z,14.89
2022-10-26T13:08:55.141Z,14.94
2022-10-26T13:11:32.212Z,15.02
2022-10-26T13:14:04.460Z,15.03
2022-10-26T13:16:33.776Z,15.04
2022-10-26T13:19:02.421Z,15.01
2022-10-26T13:21:30.987Z,15.03
2022-10-26T13:24:07.225Z,15.07
2022-10-26T13:27:13.718Z,15.13
2022-10-26T13:30:10.718Z,15.17
2022-10-26T13:32:42.190Z,15.15
2022-10-26T13:35:16.194Z,15.17
2022-10-26T13:37:47.617Z,15.20
2022-10-26T13:40:19.141Z,15.23
2022-10-26T13:42:50.235Z,15.21
2022-10-26T13:45:23.082Z,15.16
2022-10-26T13:47:58.627Z,15.18
2022-10-26T13:50:40.467Z,15.17
2022-10-26T13:53:19.867Z,15.12
2022-10-26T13:55:52.672Z,14.94
2022-10-26T13:58:30.948Z,15.00
2022-10-26T14:01:04.859Z,15.05
2022-10-26T14:03:33.339Z,15.01
2022-10-26T14:06:05.323Z,14.98
2022-10-26T14:08:35.001Z,15.06
2022-10-26T14:11:03.617Z,15.09
2022-10-26T14:13:37.087Z,15.16
2022-10-26T14:16:12.864Z,15.13
2022-10-26T14:18:44.687Z,15.13
2022-10-26T14:21:16.382Z,15.21
2022-10-26T14:23:49.518Z,15.24
2022-10-26T14:26:23.630Z,15.20
2022-10-26T14:28:55.173Z,15.13
2022-10-26T14:31:28.944Z,15.13
2022-10-26T14:33:59.824Z,15.12
2022-10-26T14:36:31.800Z,15.17
2022-10-26T14:39:04.788Z,15.17
2022-10-26T14:41:35.824Z,15.12
2022-10-26T14:44:15.695Z,14.99
2022-10-26T14:46:44.471Z,14.78
2022-10-26T14:49:20.068Z,14.78
2022-10-26T14:51:50.271Z,14.81
2022-10-26T14:54:22.582Z,14.74
2022-10-26T14:56:51.564Z,14.71
2022-10-26T14:59:24.801Z,14.73
2022-10-26T15:01:55.780Z,14.79
2022-10-26T15:04:33.979Z,14.79
2022-10-26T15:07:17.538Z,14.78
2022-10-26T15:09:47.314Z,14.72
2022-10-26T15:12:22.483Z,14.66
2022-10-26T15:14:52.173Z,14.72
2022-10-26T15:17:26.949Z,14.69
2022-10-26T15:19:55.802Z,14.62
2022-10-26T15:22:32.066Z,14.63
2022-10-26T15:25:03.928Z,14.73
2022-10-26T15:27:32.550Z,14.81
2022-10-26T15:30:17.842Z,14.88
2022-10-26T15:32:46.340Z,14.88
2022-10-26T15:35:22.705Z,14.89
2022-10-26T15:37:53.126Z,14.90
2022-10-26T15:40:22.445Z,14.88
2022-10-26T15:42:53.029Z,14.85
2022-10-26T15:45:23.640Z,14.82
2022-10-26T15:51:25.393Z,14.63
2022-10-26T15:54:17.676Z,14.54
2022-10-26T15:57:04.400Z,14.47
2022-10-26T15:59:33.058Z,14.43
2022-10-26T16:02:01.747Z,14.39
2022-10-26T16:04:52.307Z,14.34
2022-10-26T16:07:45.461Z,14.27
2022-10-26T16:10:40.155Z,14.20
2022-10-26T16:13:16.020Z,14.17
2022-10-26T16:16:38.757Z,14.11
2022-10-26T16:21:58.058Z,13.94
2022-10-26T16:24:27.509Z,13.92
2022-10-26T16:26:56.703Z,13.92
2022-10-26T16:29:25.144Z,13.89
2022-10-26T16:31:53.507Z,13.88
2022-10-26T16:34:21.940Z,13.87
2022-10-26T16:36:50.310Z,13.83
2022-10-26T16:39:18.770Z,13.78
2022-10-26T16:41:52.548Z,13.76
2022-10-26T16:44:20.927Z,13.71
2022-10-26T16:46:49.219Z,13.64
2022-10-26T16:49:17.927Z,13.59
2022-10-26T16:51:46.253Z,13.56
2022-10-26T16:54:14.594Z,13.55
2022-10-26T16:56:43.012Z,13.52
2022-10-26T16:59:11.607Z,13.48
2022-10-26T17:01:40.154Z,13.46
2022-10-26T17:04:10.303Z,13.45
2022-10-26T17:06:38.726Z,13.40
2022-10-26T17:09:09.167Z,13.36
2022-10-26T17:11:39.414Z,13.34
2022-10-26T17:14:08.348Z,13.32
2022-10-26T17:16:36.977Z,13.27
2022-10-26T17:19:05.710Z,13.22
2022-10-26T17:21:35.652Z,13.19
2022-10-26T17:24:06.113Z,13.16
2022-10-26T17:26:34.518Z,13.10
2022-10-26T17:29:03.515Z,13.07
2022-10-26T17:31:34.590Z,13.05
2022-10-26T17:34:06.862Z,13.02
2022-10-26T17:36:36.349Z,12.99
2022-10-26T17:39:06.611Z,12.95
2022-10-26T17:41:36.403Z,12.92
2022-10-26T17:44:07.698Z,12.89
2022-10-26T17:46:36.297Z,12.91
2022-10-26T17:49:05.426Z,12.90
2022-10-26T17:51:33.949Z,12.89
2022-10-26T17:54:06.248Z,12.88
2022-10-26T17:56:41.031Z,12.85
2022-10-26T17:59:14.797Z,12.82
2022-10-26T18:01:48.217Z,12.83
2022-10-26T18:04:19.389Z,12.83
2022-10-26T18:06:48.080Z,12.82
2022-10-26T18:09:18.786Z,12.81
2022-10-26T18:11:49.586Z,12.81
2022-10-26T18:14:21.298Z,12.80
2022-10-26T18:16:50.243Z,12.76
2022-10-26T18:19:19.578Z,12.72
2022-10-26T18:21:48.071Z,12.72
2022-10-26T18:24:16.543Z,12.72
2022-10-26T18:26:44.948Z,12.71
2022-10-26T18:29:13.763Z,12.69
2022-10-26T18:31:44.762Z,12.69
2022-10-26T18:34:13.636Z,12.68
2022-10-26T18:36:42.101Z,12.63
2022-10-26T18:39:11.854Z,12.60
2022-10-26T18:41:40.537Z,12.59
2022-10-26T18:44:09.646Z,12.57
2022-10-26T18:46:40.079Z,12.55
2022-10-26T18:49:09.738Z,12.53
2022-10-26T18:51:38.447Z,12.52
2022-10-26T18:54:07.071Z,12.51
2022-10-26T18:56:35.695Z,12.46
2022-10-26T18:59:05.216Z,12.43
2022-10-26T19:01:35.964Z,12.43
2022-10-26T19:04:07.085Z,12.41
2022-10-26T19:06:38.034Z,12.38
2022-10-26T19:09:08.517Z,12.35
2022-10-26T19:11:40.333Z,12.34
2022-10-26T19:14:09.368Z,12.31
2022-10-26T19:16:47.522Z,12.28
2022-10-26T19:19:19.862Z,12.24
2022-10-26T19:21:49.574Z,12.23
2022-10-26T19:24:20.373Z,12.22
2022-10-26T19:26:53.419Z,12.19
2022-10-26T19:29:24.629Z,12.17
2022-10-26T19:31:53.079Z,12.17
2022-10-26T19:34:24.247Z,12.17
2022-10-26T19:36:52.712Z,12.15
2022-10-26T19:39:22.133Z,12.13
2022-10-26T19:41:50.776Z,12.10
2022-10-26T19:44:23.116Z,12.11
2022-10-26T19:46:53.709Z,12.07
2022-10-26T19:49:25.595Z,12.05
2022-10-26T19:51:57.358Z,12.03
2022-10-26T19:54:33.045Z,11.97
2022-10-26T19:57:01.490Z,11.93
2022-10-26T19:59:29.893Z,11.93
2022-10-26T20:01:59.797Z,11.92
2022-10-26T20:04:28.239Z,11.91
2022-10-26T20:06:56.811Z,11.86
2022-10-26T20:09:25.500Z,11.77
2022-10-26T20:11:53.858Z,11.72
2022-10-26T20:14:22.212Z,11.71
2022-10-26T20:16:50.524Z,11.71
2022-10-26T20:19:18.935Z,11.66
2022-10-26T20:21:48.843Z,11.62
2022-10-26T20:24:17.320Z,11.62
2022-10-26T20:26:45.663Z,11.60
2022-10-26T20:29:14.433Z,11.60
2022-10-26T20:31:42.864Z,11.62
2022-10-26T20:34:11.275Z,11.64
2022-10-26T20:36:39.674Z,11.63
2022-10-26T20:39:09.321Z,11.62
2022-10-26T20:41:43.262Z,11.63
2022-10-26T20:44:19.929Z,11.62
2022-10-26T20:46:49.509Z,11.59
2022-10-26T20:49:19.154Z,11.59
2022-10-26T20:52:19.442Z,11.50
2022-10-26T20:54:48.248Z,11.38
2022-10-26T20:57:20.467Z,11.28
2022-10-26T20:59:51.717Z,11.21
2022-10-26T21:02:21.855Z,11.17
2022-10-26T21:04:50.219Z,11.13
2022-10-26T21:07:18.657Z,11.14
2022-10-26T21:09:47.089Z,11.17
2022-10-26T21:12:15.554Z,11.17
2022-10-26T21:14:44.217Z,11.20
2022-10-26T21:17:12.728Z,11.20
2022-10-26T21:19:41.201Z,11.20
2022-10-26T21:22:09.560Z,11.20
2022-10-26T21:24:37.948Z,11.21
2022-10-26T21:27:06.308Z,11.17
2022-10-26T21:29:37.558Z,11.12
2022-10-26T21:32:06.569Z,11.13
2022-10-26T21:34:34.943Z,11.12
2022-10-26T21:37:03.334Z,11.08
2022-10-26T21:39:31.661Z,11.03
2022-10-26T21:42:00.179Z,11.04
2022-10-26T21:44:43.798Z,11.03
2022-10-26T21:47:12.340Z,10.94
2022-10-26T21:52:10.111Z,10.86
2022-10-26T21:54:38.704Z,10.82
2022-10-26T21:57:07.058Z,10.79
2022-10-26T21:59:35.425Z,10.78
2022-10-26T22:02:04.453Z,10.82
2022-10-26T22:04:33.683Z,10.79
2022-10-26T22:07:02.566Z,10.73
2022-10-26T22:09:32.825Z,10.71
2022-10-26T22:12:04.808Z,10.75
2022-10-26T22:14:33.703Z,10.73
2022-10-26T22:17:02.633Z,10.70
2022-10-26T22:19:31.819Z,10.68
2022-10-26T22:22:00.775Z,10.70
2022-10-26T22:24:29.801Z,10.73
2022-10-26T22:26:58.681Z,10.73
2022-10-26T22:29:27.854Z,10.70
2022-10-26T22:31:56.833Z,10.61
2022-10-26T22:34:25.817Z,10.52
2022-10-26T22:36:54.698Z,10.52
2022-10-26T22:39:24.674Z,10.59
2022-10-26T22:41:53.614Z,10.65
2022-10-26T22:44:22.540Z,10.70
2022-10-26T22:46:51.748Z,10.73
2022-10-26T22:49:20.698Z,10.74
2022-10-26T22:51:49.624Z,10.79
2022-10-26T22:54:19.258Z,10.82
2022-10-26T22:56:48.223Z,10.80
2022-10-26T22:59:17.266Z,10.79
2022-10-26T23:01:46.317Z,10.80
2022-10-26T23:04:15.483Z,10.79
2022-10-26T23:06:44.418Z,10.76
2022-10-26T23:09:13.312Z,10.78
2022-10-26T23:11:42.223Z,10.80
2022-10-26T23:14:11.485Z,10.79
2022-10-26T23:16:40.305Z,10.77
2022-10-26T23:19:09.930Z,10.75
2022-10-26T23:21:38.885Z,10.78
2022-10-26T23:24:08.468Z,10.82
2022-10-26T23:26:37.526Z,10.83
2022-10-26T23:29:08.803Z,10.83
2022-10-26T23:31:38.000Z,10.85
2022-10-26T23:34:06.885Z,10.86
2022-10-26T23:36:35.831Z,10.84
2022-10-26T23:39:04.989Z,10.86
2022-10-26T23:41:34.149Z,10.87
2022-10-26T23:44:03.323Z,10.86
2022-10-26T23:46:32.316Z,10.83
2022-10-26T23:49:01.623Z,10.76
2022-10-26T23:51:30.708Z,10.77
2022-10-26T23:53:59.595Z,10.81
2022-10-26T23:56:28.894Z,10.82
2022-10-26T23:59:00.550Z,10.81
